KSWF/SWF METAR and TAF weather

Enter ICAO airport designator
Station Type Date Time Source
KSWF METAR 2019/10/23 07:45 UTC NOAA

KSWF 230745Z 00000KT 7SM OVC030 13/13 A2979


Station Type Date Time Source
KSWF Decoded METAR 2019/10/23 07:45 UTC NOAA

Newburgh / Stewart, NY, United States (KSWF) 41-30N 074-06W
Oct 23, 2019 - 03:45 AM EDT / 2019.10.23 0745 UTC
Wind: Calm:0
Visibility: 7 mile(s):0
Sky conditions: overcast
Temperature: 55 F (13 C)
Dew Point: 55 F (13 C)
Relative Humidity: 100%
Pressure (altimeter): 29.79 in. Hg (1008 hPa)
ob: KSWF 230745Z 00000KT 7SM OVC030 13/13 A2979
cycle: 8

Station Type Date Time Source
KSWF TAF 2019/10/23 06:28 UTC NOAA

TAF KSWF 230526Z 2306/2412 13010KT 2SM -RA BR OVC004
TEMPO 2306/2307 13006KT 1SM -RA BR OVC003
FM230700 29008KT 4SM -RA BR OVC006
FM230900 30010KT 5SM BR BKN025 OVC035
FM231200 29012G17KT P6SM SCT025 SCT250
FM231500 29015G23KT P6SM FEW250
FM232200 27009KT P6SM SKC
FM240300 28004KT P6SM SKC

Example: see airport list